Time;durP1;ratioP1;P1;durP2;ratioP2;P2;SDS_P1;SDS_P2;PMS_P1;PMS_P2;Temp;Humidity;BMP_temperature;BMP_pressure;BME280_temperature;BME280_humidity;BME280_pressure;Samples;Min_cycle;Max_cycle;Signal;HPM_P1;HPM_P2
2023/01/10 00:04:59;;;;;;;;;;;16.00;64.90;;;;;;10331233;28;94540;-60
2023/01/10 00:10:01;;;;;;;;;;;15.90;64.90;;;;;;10314124;28;92364;-61
2023/01/10 00:15:02;;;;;;;;;;;15.90;64.70;;;;;;10331450;28;94448;-61
2023/01/10 00:20:04;;;;;;;;;;;15.90;64.70;;;;;;10331319;28;94519;-61
2023/01/10 00:25:06;;;;;;;;;;;15.90;64.80;;;;;;10329397;28;96800;-60
2023/01/10 00:30:12;;;;;;;;;;;15.90;64.90;;;;;;10330672;28;94471;-60
2023/01/10 00:35:14;;;;;;;;;;;15.80;64.80;;;;;;10330053;28;93375;-60
2023/01/10 00:40:17;;;;;;;;;;;15.80;64.80;;;;;;10330881;28;94736;-60
2023/01/10 00:45:19;;;;;;;;;;;15.80;64.90;;;;;;10312437;28;94413;-60
2023/01/10 00:50:21;;;;;;;;;;;15.80;64.80;;;;;;10329310;28;94238;-60
2023/01/10 00:55:23;;;;;;;;;;;15.80;64.90;;;;;;10330382;28;93484;-60
2023/01/10 01:00:24;;;;;;;;;;;15.80;64.90;;;;;;10331268;28;93613;-60
2023/01/10 01:05:26;;;;;;;;;;;15.80;65.00;;;;;;10328947;28;94403;-60
2023/01/10 01:10:28;;;;;;;;;;;15.70;64.90;;;;;;10329729;28;93465;-60
2023/01/10 01:15:30;;;;;;;;;;;15.80;65.00;;;;;;10326897;28;96806;-60
2023/01/10 01:20:32;;;;;;;;;;;15.70;64.90;;;;;;10329807;28;93465;-61
2023/01/10 01:25:34;;;;;;;;;;;15.70;64.90;;;;;;10329587;28;94444;-60
2023/01/10 01:30:35;;;;;;;;;;;15.70;64.90;;;;;;10311011;28;93145;-60
2023/01/10 01:35:40;;;;;;;;;;;15.80;65.00;;;;;;10328945;28;94572;-61
2023/01/10 01:40:42;;;;;;;;;;;15.70;64.90;;;;;;10328744;28;93659;-60
2023/01/10 01:45:45;;;;;;;;;;;15.70;64.90;;;;;;10328508;28;93646;-60
2023/01/10 01:50:52;;;;;;;;;;;15.70;64.80;;;;;;10312333;28;92737;-61
2023/01/10 01:55:56;;;;;;;;;;;15.70;64.70;;;;;;10309507;28;92959;-61
2023/01/10 02:06:19;;;;;;;;;;;15.70;64.70;;;;;;10425615;22;97032;-60
2023/01/10 02:11:21;;;;;;;;;;;15.70;64.70;;;;;;10369489;28;93642;-60
2023/01/10 02:16:22;;;;;;;;;;;15.70;64.60;;;;;;10369573;28;94609;-60
2023/01/10 02:21:32;;;;;;;;;;;15.60;64.60;;;;;;10369594;28;93273;-61
2023/01/10 02:26:36;;;;;;;;;;;15.60;64.50;;;;;;10369591;28;93546;-60
2023/01/10 02:31:56;;;;;;;;;;;15.60;64.50;;;;;;10370016;28;92756;-61
2023/01/10 02:36:58;;;;;;;;;;;15.60;64.50;;;;;;10369271;28;93218;-62
2023/01/10 02:42:12;;;;;;;;;;;15.60;64.60;;;;;;10370513;28;93733;-60
2023/01/10 02:47:14;;;;;;;;;;;15.60;64.60;;;;;;10368706;28;93157;-60
2023/01/10 02:52:18;;;;;;;;;;;15.60;64.70;;;;;;10368888;28;93372;-61
2023/01/10 02:57:31;;;;;;;;;;;15.60;64.70;;;;;;10366415;28;95854;-60
2023/01/10 03:02:42;;;;;;;;;;;15.60;64.70;;;;;;10373942;28;93397;-60
2023/01/10 03:07:44;;;;;;;;;;;15.60;64.80;;;;;;10375200;28;93644;-60
2023/01/10 03:12:51;;;;;;;;;;;15.60;65.00;;;;;;10376320;28;93403;-60
2023/01/10 03:17:54;;;;;;;;;;;15.60;65.20;;;;;;10374716;28;93467;-60
2023/01/10 03:22:57;;;;;;;;;;;15.50;65.10;;;;;;10375951;28;94375;-60
2023/01/10 03:28:17;;;;;;;;;;;15.50;65.50;;;;;;10374050;28;92796;-60
2023/01/10 03:33:23;;;;;;;;;;;15.50;65.50;;;;;;10375500;28;92761;-61
2023/01/10 03:38:33;;;;;;;;;;;15.50;65.40;;;;;;10373866;28;93554;-60
2023/01/10 03:49:05;;;;;;;;;;;15.50;65.30;;;;;;10371184;28;97074;-60
2023/01/10 03:54:07;;;;;;;;;;;15.50;65.20;;;;;;10374107;28;93437;-60
2023/01/10 03:59:09;;;;;;;;;;;15.50;65.20;;;;;;10374119;28;93453;-61
2023/01/10 04:04:11;;;;;;;;;;;15.50;65.30;;;;;;10373643;28;93872;-60
2023/01/10 04:09:12;;;;;;;;;;;15.50;65.30;;;;;;10374448;28;93597;-60
2023/01/10 04:14:14;;;;;;;;;;;15.50;65.30;;;;;;10372538;28;94208;-60
2023/01/10 04:19:16;;;;;;;;;;;15.50;65.20;;;;;;10372946;28;94223;-60
2023/01/10 04:24:18;;;;;;;;;;;15.50;65.30;;;;;;10355766;28;92676;-61
2023/01/10 04:29:20;;;;;;;;;;;15.50;65.40;;;;;;10354654;28;94375;-60
2023/01/10 04:34:21;;;;;;;;;;;15.50;65.50;;;;;;10372413;28;93434;-60
2023/01/10 04:39:23;;;;;;;;;;;15.50;65.30;;;;;;10370314;28;96411;-60
2023/01/10 04:44:25;;;;;;;;;;;15.50;65.40;;;;;;10371964;28;93464;-60
2023/01/10 06:06:41;;;;;;;;;;;16.20;63.90;;;;;;10361484;28;92652;-60
2023/01/10 06:11:42;;;;;;;;;;;16.40;63.20;;;;;;10370993;28;94493;-61
2023/01/10 06:16:44;;;;;;;;;;;16.50;63.00;;;;;;10352132;28;94513;-60
2023/01/10 06:21:46;;;;;;;;;;;16.50;62.90;;;;;;10370084;28;92280;-60
2023/01/10 06:26:48;;;;;;;;;;;16.50;62.90;;;;;;10369686;28;94382;-60
2023/01/10 06:31:50;;;;;;;;;;;16.40;62.90;;;;;;10369854;28;92521;-61
2023/01/10 06:36:57;;;;;;;;;;;16.40;65.40;;;;;;10399155;27;95998;-60
2023/01/10 06:41:58;;;;;;;;;;;16.50;65.00;;;;;;10418768;27;93962;-60
2023/01/10 06:47:00;;;;;;;;;;;16.50;65.10;;;;;;10417772;28;93353;-60
2023/01/10 06:52:02;;;;;;;;;;;16.60;65.00;;;;;;10417637;28;93203;-60
2023/01/10 06:57:04;;;;;;;;;;;16.60;65.10;;;;;;10417252;28;93337;-61
2023/01/10 07:02:08;;;;;;;;;;;16.60;66.00;;;;;;10417719;28;94189;-64
2023/01/10 07:07:10;;;;;;;;;;;16.50;67.90;;;;;;10415865;28;93680;-60
2023/01/10 07:12:12;;;;;;;;;;;16.50;67.20;;;;;;10417658;28;92513;-60
2023/01/10 07:17:14;;;;;;;;;;;16.40;66.10;;;;;;10418109;28;93236;-60
2023/01/10 07:22:15;;;;;;;;;;;16.40;65.80;;;;;;10417272;28;94239;-60
2023/01/10 07:27:18;;;;;;;;;;;16.40;66.20;;;;;;10414846;28;96227;-60
2023/01/10 07:32:19;;;;;;;;;;;16.30;66.40;;;;;;10417920;28;93461;-60
2023/01/10 07:37:21;;;;;;;;;;;16.30;67.10;;;;;;10417040;28;93395;-60
2023/01/10 07:42:23;;;;;;;;;;;16.30;69.20;;;;;;10416823;28;94810;-59
2023/01/10 07:47:27;;;;;;;;;;;16.20;68.90;;;;;;10415137;27;94898;-59
2023/01/10 07:52:28;;;;;;;;;;;16.10;68.80;;;;;;10398895;28;94486;-61
2023/01/10 07:57:30;;;;;;;;;;;16.10;70.10;;;;;;10416011;28;92519;-60
2023/01/10 08:02:32;;;;;;;;;;;16.10;70.90;;;;;;10417986;28;92548;-60
2023/01/10 08:07:35;;;;;;;;;;;16.10;70.40;;;;;;10415350;28;93426;-60
2023/01/10 08:12:36;;;;;;;;;;;16.00;67.00;;;;;;10416498;28;95148;-59
2023/01/10 08:17:39;;;;;;;;;;;15.90;67.30;;;;;;10394619;28;96846;-59
2023/01/10 08:22:41;;;;;;;;;;;15.90;68.40;;;;;;10396581;28;93975;-60
2023/01/10 08:27:42;;;;;;;;;;;15.80;68.10;;;;;;10411110;28;93236;-60
2023/01/10 08:32:44;;;;;;;;;;;15.80;67.90;;;;;;10414628;28;93840;-60
2023/01/10 08:37:46;;;;;;;;;;;15.80;68.00;;;;;;10395348;28;93929;-60
2023/01/10 08:42:54;;;;;;;;;;;15.70;67.40;;;;;;10411773;28;93507;-60
2023/01/10 08:47:56;;;;;;;;;;;15.70;67.30;;;;;;10413140;28;94587;-59
2023/01/10 08:52:58;;;;;;;;;;;15.70;67.10;;;;;;10392979;28;92455;-60
2023/01/10 08:58:00;;;;;;;;;;;15.70;67.00;;;;;;10411608;28;93389;-60
2023/01/10 09:03:04;;;;;;;;;;;15.60;67.10;;;;;;10413802;28;94818;-60
2023/01/10 09:08:06;;;;;;;;;;;15.60;67.20;;;;;;10394128;28;96066;-60
2023/01/10 09:13:08;;;;;;;;;;;15.60;67.10;;;;;;10412911;28;93409;-60
2023/01/10 09:18:11;;;;;;;;;;;15.60;67.20;;;;;;10414316;28;94461;-59
2023/01/10 09:23:17;;;;;;;;;;;15.60;67.20;;;;;;10414007;28;92832;-59
2023/01/10 09:28:20;;;;;;;;;;;15.60;67.20;;;;;;10413198;28;93376;-60
2023/01/10 09:33:21;;;;;;;;;;;15.50;67.20;;;;;;10395997;28;93551;-60
2023/01/10 09:38:24;;;;;;;;;;;15.50;67.20;;;;;;10413691;28;94486;-60
2023/01/10 09:43:37;;;;;;;;;;;15.50;67.20;;;;;;10412429;28;92697;-60
2023/01/10 09:48:39;;;;;;;;;;;15.50;67.30;;;;;;10412410;28;93492;-60
2023/01/10 09:53:43;;;;;;;;;;;15.50;67.20;;;;;;10412660;28;93522;-61
2023/01/10 09:58:46;;;;;;;;;;;15.40;67.20;;;;;;10409283;28;96276;-60
2023/01/10 10:04:07;;;;;;;;;;;15.40;67.10;;;;;;10411477;28;93572;-61
2023/01/10 10:09:14;;;;;;;;;;;15.40;67.20;;;;;;10411012;27;93658;-60
2023/01/10 10:14:22;;;;;;;;;;;15.40;67.20;;;;;;10411773;28;94522;-60
2023/01/10 10:19:26;;;;;;;;;;;15.40;67.10;;;;;;10394659;28;94210;-60
2023/01/10 10:24:34;;;;;;;;;;;15.40;67.20;;;;;;10394478;28;94802;-60
2023/01/10 10:29:45;;;;;;;;;;;15.40;67.10;;;;;;10412180;28;93609;-60
2023/01/10 10:34:52;;;;;;;;;;;15.40;66.90;;;;;;10412415;28;92760;-60
2023/01/10 10:39:56;;;;;;;;;;;15.30;66.90;;;;;;10411187;28;93877;-60
2023/01/10 10:45:18;;;;;;;;;;;15.30;66.90;;;;;;10411446;28;94377;-61
2023/01/10 10:50:27;;;;;;;;;;;15.30;66.90;;;;;;10408841;28;95399;-60
2023/01/10 10:55:33;;;;;;;;;;;15.30;66.80;;;;;;10411284;28;94579;-61
2023/01/10 11:00:34;;;;;;;;;;;15.30;66.70;;;;;;10411371;28;93641;-61
2023/01/10 11:05:38;;;;;;;;;;;15.30;66.60;;;;;;10411504;28;93371;-60
2023/01/10 11:10:43;;;;;;;;;;;15.30;66.70;;;;;;10391908;28;93455;-61
2023/01/10 11:15:46;;;;;;;;;;;15.30;66.60;;;;;;10410479;28;93447;-61
2023/01/10 11:20:48;;;;;;;;;;;15.30;66.50;;;;;;10395040;27;94735;-60
2023/01/10 11:25:49;;;;;;;;;;;15.30;66.50;;;;;;10418541;28;93701;-61
2023/01/10 11:30:51;;;;;;;;;;;15.30;66.50;;;;;;10417871;28;93009;-61
2023/01/10 11:35:56;;;;;;;;;;;15.30;66.50;;;;;;10417410;28;94066;-60
2023/01/10 11:40:59;;;;;;;;;;;15.30;66.60;;;;;;10396182;28;95912;-60
2023/01/10 11:46:20;;;;;;;;;;;15.30;66.50;;;;;;10416768;28;94418;-59
2023/01/10 11:51:24;;;;;;;;;;;15.30;66.50;;;;;;10417035;28;94984;-60
2023/01/10 11:56:28;;;;;;;;;;;15.30;66.50;;;;;;10414052;28;93415;-60
2023/01/10 12:01:30;;;;;;;;;;;15.30;66.50;;;;;;10416723;28;93465;-60
2023/01/10 12:06:32;;;;;;;;;;;15.20;66.40;;;;;;10415900;28;93477;-60
2023/01/10 12:11:34;;;;;;;;;;;15.30;66.40;;;;;;10415630;28;93559;-60
2023/01/10 12:16:37;;;;;;;;;;;15.20;66.30;;;;;;10416234;28;92724;-60
2023/01/10 12:21:39;;;;;;;;;;;15.20;66.30;;;;;;10415767;28;93639;-60
2023/01/10 12:26:41;;;;;;;;;;;15.20;66.10;;;;;;10398185;28;92534;-61
2023/01/10 12:31:42;;;;;;;;;;;15.20;66.10;;;;;;10393688;27;96634;-61
2023/01/10 12:37:03;;;;;;;;;;;15.20;66.10;;;;;;10416384;28;94263;-60
2023/01/10 12:47:50;;;;;;;;;;;15.20;66.00;;;;;;10415524;28;94351;-60
2023/01/10 12:52:58;;;;;;;;;;;15.20;66.00;;;;;;10395848;28;93412;-60
2023/01/10 12:58:01;;;;;;;;;;;15.20;65.90;;;;;;10415048;28;93394;-60
2023/01/10 13:03:09;;;;;;;;;;;15.20;65.90;;;;;;10414670;28;93425;-60
2023/01/10 13:08:12;;;;;;;;;;;15.10;65.90;;;;;;10415639;28;92736;-60
2023/01/10 13:13:25;;;;;;;;;;;15.20;65.90;;;;;;10414210;28;93476;-60
2023/01/10 13:18:28;;;;;;;;;;;15.10;65.80;;;;;;10413332;28;93496;-60
2023/01/10 13:23:32;;;;;;;;;;;15.10;65.80;;;;;;10411673;28;97006;-60
2023/01/10 13:28:35;;;;;;;;;;;15.10;65.80;;;;;;10414240;28;94425;-60
2023/01/10 13:33:57;;;;;;;;;;;15.10;65.80;;;;;;10412343;28;93494;-61
2023/01/10 13:39:01;;;;;;;;;;;15.10;65.80;;;;;;10394831;28;93235;-61
2023/01/10 13:44:08;;;;;;;;;;;15.10;65.80;;;;;;10412744;28;93334;-61
2023/01/10 13:49:10;;;;;;;;;;;15.10;65.70;;;;;;10412378;28;93331;-61
2023/01/10 13:54:14;;;;;;;;;;;15.10;65.80;;;;;;10394894;28;93683;-60
2023/01/10 14:04:48;;;;;;;;;;;15.00;65.60;;;;;;10409601;28;94399;-60
2023/01/10 14:09:51;;;;;;;;;;;15.10;65.60;;;;;;10371257;28;94384;-60
2023/01/10 14:14:58;;;;;;;;;;;15.00;65.40;;;;;;10350955;28;97095;-60
2023/01/10 14:20:26;;;;;;;;;;;15.10;65.40;;;;;;10371075;28;94601;-60
2023/01/10 14:25:28;;;;;;;;;;;15.00;65.40;;;;;;10365225;28;93490;-60
2023/01/10 14:30:32;;;;;;;;;;;15.00;65.30;;;;;;10370453;28;93242;-59
2023/01/10 14:35:38;;;;;;;;;;;15.00;65.30;;;;;;10370427;28;93638;-59
2023/01/10 14:40:42;;;;;;;;;;;15.00;65.10;;;;;;10370033;28;94670;-59
2023/01/10 14:45:43;;;;;;;;;;;15.00;65.20;;;;;;10370165;28;94194;-59
2023/01/10 14:50:45;;;;;;;;;;;15.00;65.10;;;;;;10370246;28;92807;-59
2023/01/10 14:55:47;;;;;;;;;;;15.00;65.10;;;;;;10352993;28;93012;-60
2023/01/10 15:00:50;;;;;;;;;;;15.00;65.10;;;;;;10377472;28;94095;-60
2023/01/10 15:05:53;;;;;;;;;;;15.00;65.10;;;;;;10372875;28;96603;-59
2023/01/10 15:10:56;;;;;;;;;;;15.00;65.10;;;;;;10377202;28;94489;-59
2023/01/10 15:15:58;;;;;;;;;;;15.00;65.10;;;;;;10377335;28;94209;-59
2023/01/10 15:21:00;;;;;;;;;;;14.90;65.00;;;;;;10376242;28;93445;-59
2023/01/10 15:26:04;;;;;;;;;;;14.90;66.00;;;;;;10357289;28;93468;-60
2023/01/10 15:31:07;;;;;;;;;;;14.90;65.00;;;;;;10376348;28;94278;-60
2023/01/10 15:36:13;;;;;;;;;;;14.90;65.00;;;;;;10374891;28;93663;-60
2023/01/10 15:41:19;;;;;;;;;;;14.90;65.00;;;;;;10375870;28;92827;-59
2023/01/10 15:46:22;;;;;;;;;;;14.90;65.00;;;;;;10375267;28;93840;-60
2023/01/10 15:51:28;;;;;;;;;;;14.90;65.00;;;;;;10374917;28;93449;-60
2023/01/10 15:56:40;;;;;;;;;;;14.90;65.00;;;;;;10372897;28;96855;-59
2023/01/10 16:01:45;;;;;;;;;;;14.90;65.00;;;;;;10375627;28;94561;-59
2023/01/10 16:06:49;;;;;;;;;;;14.90;65.00;;;;;;10373595;28;93340;-60
2023/01/10 16:17:12;;;;;;;;;;;14.90;65.10;;;;;;10374029;28;94540;-59
2023/01/10 16:22:16;;;;;;;;;;;14.80;65.00;;;;;;10373851;28;92922;-59
2023/01/10 16:27:18;;;;;;;;;;;14.80;65.00;;;;;;10355744;28;93465;-60
2023/01/10 16:32:20;;;;;;;;;;;14.80;65.00;;;;;;10374294;28;93856;-60
2023/01/10 16:37:23;;;;;;;;;;;14.80;65.00;;;;;;10373981;28;94732;-60
2023/01/10 16:47:45;;;;;;;;;;;14.80;65.10;;;;;;10371037;28;96864;-61
2023/01/10 16:52:47;;;;;;;;;;;14.90;65.00;;;;;;10373407;28;93718;-60
2023/01/10 16:57:50;;;;;;;;;;;15.20;64.90;;;;;;10373298;28;94460;-60
2023/01/10 17:02:52;;;;;;;;;;;15.50;64.40;;;;;;10372032;28;93680;-60
2023/01/10 17:07:53;;;;;;;;;;;15.80;63.80;;;;;;10354654;28;93783;-60
2023/01/10 17:12:55;;;;;;;;;;;16.00;63.10;;;;;;10371968;28;92713;-60
2023/01/10 17:17:57;;;;;;;;;;;16.30;62.60;;;;;;10354231;28;93489;-60
2023/01/10 17:22:59;;;;;;;;;;;16.60;62.10;;;;;;10373493;28;92906;-60
2023/01/10 17:28:01;;;;;;;;;;;16.70;61.60;;;;;;10355075;28;94001;-60
2023/01/10 17:33:04;;;;;;;;;;;16.80;61.30;;;;;;10372978;28;93227;-60
2023/01/10 17:38:06;;;;;;;;;;;16.80;61.20;;;;;;10369324;28;95853;-61
2023/01/10 17:43:09;;;;;;;;;;;16.90;61.10;;;;;;10371659;28;93393;-60
2023/01/10 17:48:13;;;;;;;;;;;16.90;61.20;;;;;;10371945;28;93470;-60
2023/01/10 17:53:16;;;;;;;;;;;16.90;61.10;;;;;;10371286;28;94069;-60
2023/01/10 17:58:17;;;;;;;;;;;16.90;61.00;;;;;;10372263;28;93884;-60
2023/01/10 18:03:19;;;;;;;;;;;17.10;61.10;;;;;;10371252;28;93454;-61
2023/01/10 18:08:21;;;;;;;;;;;17.30;61.00;;;;;;10371081;28;94011;-61
2023/01/10 18:13:23;;;;;;;;;;;17.50;60.90;;;;;;10370801;28;92666;-61
2023/01/10 18:18:28;;;;;;;;;;;17.50;60.70;;;;;;10370321;28;93618;-60
2023/01/10 18:23:30;;;;;;;;;;;17.60;60.60;;;;;;10352414;28;93467;-60
2023/01/10 18:28:38;;;;;;;;;;;17.50;60.80;;;;;;10350496;28;97232;-59
2023/01/10 18:33:46;;;;;;;;;;;17.50;61.20;;;;;;10376196;28;93507;-60
2023/01/10 18:38:48;;;;;;;;;;;17.50;61.60;;;;;;10358645;28;94042;-60
2023/01/10 18:43:49;;;;;;;;;;;17.60;61.40;;;;;;10376639;28;93697;-60
2023/01/10 18:48:51;;;;;;;;;;;17.70;61.30;;;;;;10377332;28;93653;-59
2023/01/10 18:53:53;;;;;;;;;;;17.90;61.20;;;;;;10374649;28;94034;-59
2023/01/10 18:58:57;;;;;;;;;;;17.90;60.90;;;;;;10376057;28;93242;-60
2023/01/10 19:03:59;;;;;;;;;;;17.90;60.90;;;;;;10375746;28;92515;-59
2023/01/10 19:09:00;;;;;;;;;;;17.90;60.90;;;;;;10374747;28;93886;-60
2023/01/10 19:14:02;;;;;;;;;;;17.90;61.00;;;;;;10376346;28;94271;-60
2023/01/10 19:19:08;;;;;;;;;;;18.00;61.60;;;;;;10372717;28;96831;-60
2023/01/10 19:24:23;;;;;;;;;;;18.10;61.50;;;;;;10374798;28;93450;-60
2023/01/10 19:29:25;;;;;;;;;;;18.20;61.20;;;;;;10373965;28;94143;-59
2023/01/10 19:34:27;;;;;;;;;;;18.30;61.20;;;;;;10373976;28;93421;-60
2023/01/10 19:39:28;;;;;;;;;;;18.30;61.30;;;;;;10374288;28;93507;-60
2023/01/10 19:44:30;;;;;;;;;;;18.30;61.30;;;;;;10374481;28;94370;-60
2023/01/10 19:49:34;;;;;;;;;;;18.30;61.40;;;;;;10355852;28;93090;-60
2023/01/10 19:54:37;;;;;;;;;;;18.30;61.50;;;;;;10375533;28;93210;-60
2023/01/10 19:59:40;;;;;;;;;;;18.40;61.40;;;;;;10355509;28;93482;-60
2023/01/10 20:04:42;;;;;;;;;;;18.40;61.30;;;;;;10373304;28;94422;-59
2023/01/10 20:09:43;;;;;;;;;;;18.40;61.30;;;;;;10371511;28;95860;-60
2023/01/10 20:14:45;;;;;;;;;;;18.40;61.20;;;;;;10355738;28;94415;-60
2023/01/10 20:19:48;;;;;;;;;;;18.40;61.40;;;;;;10356150;28;94468;-60
2023/01/10 20:24:49;;;;;;;;;;;18.40;61.50;;;;;;10373373;28;94468;-61
2023/01/10 20:29:51;;;;;;;;;;;18.50;61.60;;;;;;10373093;28;92611;-60
2023/01/10 20:34:53;;;;;;;;;;;18.50;61.50;;;;;;10373635;28;93207;-60
2023/01/10 20:39:55;;;;;;;;;;;18.50;61.30;;;;;;10373812;28;95796;-60
2023/01/10 20:44:56;;;;;;;;;;;18.40;62.60;;;;;;10375180;28;93785;-60
2023/01/10 20:49:58;;;;;;;;;;;18.30;62.20;;;;;;10372630;28;92630;-60
2023/01/10 20:55:00;;;;;;;;;;;18.10;62.20;;;;;;10372224;28;94430;-60
2023/01/10 21:00:02;;;;;;;;;;;18.00;62.60;;;;;;10369355;28;96309;-61
2023/01/10 21:05:04;;;;;;;;;;;17.80;62.70;;;;;;10372555;28;93527;-60
2023/01/10 21:10:06;;;;;;;;;;;17.70;63.10;;;;;;10372073;28;93531;-60
2023/01/10 21:15:08;;;;;;;;;;;17.60;63.50;;;;;;10354843;28;94414;-60
2023/01/10 21:20:10;;;;;;;;;;;17.50;63.70;;;;;;10372146;28;94375;-60
2023/01/10 21:25:12;;;;;;;;;;;17.30;64.00;;;;;;10371600;28;92844;-60
2023/01/10 21:30:14;;;;;;;;;;;17.20;64.30;;;;;;10372450;28;93401;-60
2023/01/10 21:35:15;;;;;;;;;;;17.10;64.40;;;;;;10373202;28;94110;-60
2023/01/10 21:40:17;;;;;;;;;;;17.00;64.70;;;;;;10371147;28;94195;-61
2023/01/10 21:45:20;;;;;;;;;;;17.00;64.90;;;;;;10372098;28;94416;-60
2023/01/10 21:50:21;;;;;;;;;;;16.90;65.00;;;;;;10350798;28;96503;-61
2023/01/10 21:55:25;;;;;;;;;;;16.80;65.20;;;;;;10370414;28;114972;-60
2023/01/10 22:00:27;;;;;;;;;;;16.70;65.40;;;;;;10369946;28;94268;-60
2023/01/10 22:05:29;;;;;;;;;;;16.70;65.60;;;;;;10370181;28;92562;-60
2023/01/10 22:10:30;;;;;;;;;;;16.60;65.60;;;;;;10369266;28;94474;-60
2023/01/10 22:15:32;;;;;;;;;;;16.60;66.00;;;;;;10369832;28;93195;-60
2023/01/10 22:20:34;;;;;;;;;;;16.50;65.70;;;;;;10370709;28;94455;-60
2023/01/10 22:25:36;;;;;;;;;;;16.50;65.80;;;;;;10370582;28;93568;-60
2023/01/10 22:30:38;;;;;;;;;;;16.40;65.80;;;;;;10351301;28;93255;-60
2023/01/10 22:35:39;;;;;;;;;;;16.40;65.90;;;;;;10370177;28;92643;-60
2023/01/10 22:40:41;;;;;;;;;;;16.30;65.90;;;;;;10366687;28;96157;-60
2023/01/10 22:45:43;;;;;;;;;;;16.30;66.00;;;;;;10368695;28;93471;-60
2023/01/10 22:50:48;;;;;;;;;;;16.20;66.00;;;;;;10370097;28;92913;-60
2023/01/10 22:55:50;;;;;;;;;;;16.20;66.00;;;;;;10369788;28;93789;-60
2023/01/10 23:00:51;;;;;;;;;;;16.20;66.20;;;;;;10369234;28;93499;-60
2023/01/10 23:05:55;;;;;;;;;;;16.10;66.20;;;;;;10368981;28;95762;-60
2023/01/10 23:10:56;;;;;;;;;;;16.10;66.30;;;;;;10350378;28;94455;-61
2023/01/10 23:16:03;;;;;;;;;;;16.00;66.30;;;;;;10369586;28;92672;-60
2023/01/10 23:21:06;;;;;;;;;;;16.00;66.30;;;;;;10375224;28;92892;-60
2023/01/10 23:26:09;;;;;;;;;;;16.00;66.40;;;;;;10375520;28;94405;-60
2023/01/10 23:31:11;;;;;;;;;;;15.90;66.40;;;;;;10354664;28;96755;-60
2023/01/10 23:36:13;;;;;;;;;;;15.90;66.60;;;;;;10375295;28;94433;-61
2023/01/10 23:41:14;;;;;;;;;;;15.90;67.50;;;;;;10375174;28;94536;-61
2023/01/10 23:46:16;;;;;;;;;;;15.90;66.70;;;;;;10375616;28;93478;-61
2023/01/10 23:51:18;;;;;;;;;;;15.90;66.70;;;;;;10374748;28;92609;-60
2023/01/10 23:56:20;;;;;;;;;;;15.80;66.70;;;;;;10374706;28;93481;-60
